Huizum, Netherlands
Current Conditions -  °F | °C
As of 12:21 PM on Thursday 23 Oct 2014 (Local Time) from EHLW Reporting Station
Haze Haze  
Wind Chill: 55°   Ceiling: 900
Heat Index: 55°   Visibility: 6mi
Dew Point: 54°   Wind: 10mph
Humidity: 94%   Direction: 180°S
Pressure: 30.12"   Gusts: NA
Location:  53.19°N, 5.81°E
Report Text: EHLW 231021Z AUTO 18009KT 9000 BR SCT006 BKN009 BKN011 13/12 Q1020 YLO 18009KT 9999 FEW020 BKN033 TEMPO 5000 BR FEW006 SCT008 BKN023
Loading
Personal Weather Stations






























Interactive Weather Map
Tropical Storm Tracking
New forecast layout! Learn more

10-Day Weather Forecast

Advertisements
Track Severe Weather on mobile